ADDS METAR Data INFO
IDs: Format: Raw Decoded Include TAF

Data at: 0344 UTC 18 Oct 2017

KAID 161948Z 31010G15KT 10SM BKN050 15/03 A3028
KAID 161847Z 31010KT 10SM SCT050 14/03 A3031
KAID 161645Z 31007KT 10SM SCT040 13/04 A3033
KAID 161547Z 32010KT 10SM SCT025 12/04 A3034